« Back
NWS Peachtree City, Ga » Text Product » AHN Terminal Aerodrome Forecast


Printer-friendly Version
Current Version              Previous Versions:   1  2  3  4  5  6  7  8  9  

Terminal Aerodrome Forecast

380
FTAK31 PAJN 270521
TAFAHN
TAF
PAHN 270521Z 2706/2806 VRB05KT P6SM VCSH OVC090
     FM271800 29010KT P6SM SCT100
      AMD LTD TO CLD VIS AND WIND=



USA.gov is the U.S. government's official web portal to all federal, state and local government web resources and services.